Aviation Digital Data Service (ADDS)

Output produced by METARs form (1623 UTC 24 August 2019)
found at http://www.aviationweather.gov/metar/data/
 
TAF RJEC 241114Z 2412/2518 32003KT 9999 FEW008 BKN015 
     TEMPO 2415/2422 3000 BR FEW003 BKN006